createdAt,value
2018-03-07T00:00:05.341Z,28.20
2018-03-07T00:02:35.190Z,28.20
2018-03-07T00:05:04.923Z,28.20
2018-03-07T00:07:34.724Z,28.20
2018-03-07T00:10:04.475Z,28.20
2018-03-07T00:12:35.059Z,28.10
2018-03-07T00:15:04.822Z,28.10
2018-03-07T00:17:35.421Z,28.10
2018-03-07T00:20:05.366Z,28.10
2018-03-07T00:22:35.152Z,28.20
2018-03-07T00:25:04.921Z,28.20
2018-03-07T00:27:34.718Z,28.20
2018-03-07T00:30:04.552Z,28.20
2018-03-07T00:32:34.353Z,28.20
2018-03-07T00:35:04.137Z,28.20
2018-03-07T00:37:35.071Z,28.20
2018-03-07T00:40:05.706Z,28.20
2018-03-07T00:42:36.269Z,28.30
2018-03-07T00:45:06.248Z,28.30
2018-03-07T00:47:37.335Z,28.30
2018-03-07T00:50:08.310Z,28.30
2018-03-07T00:52:38.796Z,28.30
2018-03-07T00:55:08.582Z,28.30
2018-03-07T00:57:39.161Z,28.20
2018-03-07T01:00:09.265Z,28.20
2018-03-07T01:02:39.773Z,28.20
2018-03-07T01:05:11.256Z,28.20
2018-03-07T01:07:41.010Z,28.10
2018-03-07T01:10:11.640Z,28.10
2018-03-07T01:12:42.375Z,28.10
2018-03-07T01:15:13.930Z,28.10
2018-03-07T01:17:44.486Z,28.10
2018-03-07T01:20:14.246Z,28.10
2018-03-07T01:22:44.030Z,28.10
2018-03-07T01:25:14.312Z,28.20
2018-03-07T01:27:44.090Z,28.20
2018-03-07T01:30:13.931Z,28.20
2018-03-07T01:32:44.509Z,28.10
2018-03-07T01:35:14.317Z,28.10
2018-03-07T01:37:45.079Z,28.20
2018-03-07T01:40:14.919Z,28.10
2018-03-07T01:42:46.928Z,28.30
2018-03-07T01:45:16.799Z,28.20
2018-03-07T01:47:47.422Z,28.30
2018-03-07T01:50:19.173Z,28.40
2018-03-07T01:52:49.712Z,28.30
2018-03-07T01:55:20.266Z,28.50
2018-03-07T01:57:51.331Z,28.40
2018-03-07T02:00:21.173Z,28.50
2018-03-07T02:02:51.422Z,28.50
2018-03-07T02:05:21.982Z,28.60
2018-03-07T02:07:51.802Z,28.50
2018-03-07T02:10:21.777Z,28.50
2018-03-07T02:12:51.587Z,28.50
2018-03-07T02:15:22.138Z,28.40
2018-03-07T02:17:51.880Z,28.40
2018-03-07T02:20:21.554Z,28.50
2018-03-07T02:22:51.877Z,28.50
2018-03-07T02:25:21.995Z,28.50
2018-03-07T02:27:52.708Z,28.60
2018-03-07T02:30:23.907Z,28.60
2018-03-07T02:32:53.690Z,28.50
2018-03-07T02:35:23.439Z,28.60
2018-03-07T02:37:53.477Z,28.60
2018-03-07T02:40:23.916Z,28.60
2018-03-07T02:42:53.898Z,28.60
2018-03-07T02:45:23.608Z,28.50
2018-03-07T02:47:55.037Z,28.60
2018-03-07T02:50:24.834Z,28.60
2018-03-07T02:52:55.730Z,28.70
2018-03-07T02:55:25.463Z,28.70
2018-03-07T02:57:56.570Z,28.70
2018-03-07T03:00:26.374Z,28.70
2018-03-07T03:02:56.865Z,28.70
2018-03-07T03:05:26.629Z,28.80
2018-03-07T03:07:56.323Z,28.80
2018-03-07T03:10:26.286Z,28.70
2018-03-07T03:12:57.502Z,28.70
2018-03-07T03:15:27.193Z,28.80
2018-03-07T03:17:57.279Z,28.80
2018-03-07T03:20:28.178Z,28.80
2018-03-07T03:22:58.219Z,28.80
2018-03-07T03:25:29.701Z,28.80
2018-03-07T03:27:59.443Z,28.80
2018-03-07T03:30:29.139Z,28.80
2018-03-07T03:32:59.874Z,28.80
2018-03-07T03:35:30.365Z,28.80
2018-03-07T03:38:00.136Z,28.80
2018-03-07T03:40:31.233Z,28.80
2018-03-07T03:43:00.956Z,28.80
2018-03-07T03:45:30.706Z,28.80
2018-03-07T03:48:00.378Z,28.90
2018-03-07T03:50:30.089Z,28.90
2018-03-07T03:53:00.347Z,28.90
2018-03-07T03:55:31.134Z,29.00
2018-03-07T03:58:00.996Z,29.00
2018-03-07T04:00:31.522Z,29.00
2018-03-07T04:03:01.246Z,29.00
2018-03-07T04:05:37.211Z,29.00
2018-03-07T04:08:07.531Z,29.00
2018-03-07T04:10:37.989Z,28.90
2018-03-07T04:13:07.702Z,28.90
2018-03-07T04:15:37.426Z,28.90
2018-03-07T04:18:07.122Z,28.90
2018-03-07T04:20:36.846Z,28.90
2018-03-07T04:23:07.848Z,28.90
2018-03-07T04:25:37.559Z,28.90
2018-03-07T04:28:07.269Z,29.00
2018-03-07T04:30:38.016Z,29.00
2018-03-07T04:33:07.723Z,28.90
2018-03-07T04:35:37.777Z,29.00
2018-03-07T04:38:07.519Z,29.10
2018-03-07T04:40:37.986Z,29.20
2018-03-07T04:43:07.695Z,29.20
2018-03-07T04:45:37.325Z,29.30
2018-03-07T04:48:07.028Z,29.30
2018-03-07T04:50:36.772Z,29.40
2018-03-07T04:53:06.449Z,29.40
2018-03-07T04:55:36.198Z,29.50
2018-03-07T04:58:06.867Z,29.50
2018-03-07T05:00:37.746Z,29.40
2018-03-07T05:03:07.435Z,29.40
2018-03-07T05:05:37.260Z,29.50
2018-03-07T05:08:08.803Z,29.40
2018-03-07T05:10:38.687Z,29.50
2018-03-07T05:13:10.727Z,29.60
2018-03-07T05:15:41.253Z,29.70
2018-03-07T05:18:11.780Z,29.70
2018-03-07T05:20:43.867Z,29.70
2018-03-07T05:23:14.968Z,29.80
2018-03-07T05:25:44.697Z,29.80
2018-03-07T05:28:14.358Z,29.80
2018-03-07T05:30:44.132Z,29.80
2018-03-07T05:33:14.563Z,29.90
2018-03-07T05:35:45.457Z,29.90
2018-03-07T05:38:15.165Z,29.90
2018-03-07T05:40:44.918Z,29.90
2018-03-07T05:43:14.959Z,29.90
2018-03-07T05:45:45.362Z,30.00
2018-03-07T05:48:15.845Z,30.10
2018-03-07T05:50:45.594Z,30.10
2018-03-07T05:53:15.400Z,30.10
2018-03-07T05:55:45.875Z,30.10
2018-03-07T05:58:15.607Z,30.00
2018-03-07T06:00:45.388Z,30.10
2018-03-07T06:03:15.271Z,30.20
2018-03-07T06:05:46.548Z,30.30
2018-03-07T06:08:16.893Z,30.20
2018-03-07T06:10:46.566Z,30.20
2018-03-07T06:13:17.292Z,30.20
2018-03-07T06:15:46.966Z,30.20
2018-03-07T06:18:16.630Z,30.30
2018-03-07T06:20:46.290Z,30.30
2018-03-07T06:23:16.112Z,30.40
2018-03-07T06:25:46.623Z,30.40
2018-03-07T06:28:16.318Z,30.40
2018-03-07T06:30:46.005Z,30.30
2018-03-07T06:33:15.736Z,30.40
2018-03-07T06:35:45.476Z,30.40
2018-03-07T06:38:15.775Z,30.40
2018-03-07T06:40:46.083Z,30.50
2018-03-07T06:43:16.573Z,30.40
2018-03-07T06:45:47.067Z,30.40
2018-03-07T06:48:16.824Z,30.40
2018-03-07T06:50:47.574Z,30.40
2018-03-07T06:53:17.363Z,30.40
2018-03-07T06:55:47.242Z,30.50
2018-03-07T06:58:17.319Z,30.40
2018-03-07T07:00:47.042Z,30.40
2018-03-07T07:03:16.762Z,30.40
2018-03-07T07:05:47.349Z,30.40
2018-03-07T07:08:17.085Z,30.50
2018-03-07T07:10:46.830Z,30.50
2018-03-07T07:13:17.496Z,30.60
2018-03-07T07:15:47.222Z,30.70
2018-03-07T07:18:16.941Z,30.70
2018-03-07T07:20:46.629Z,30.60
2018-03-07T07:23:16.288Z,30.60
2018-03-07T07:25:46.049Z,30.70
2018-03-07T07:28:16.357Z,30.60
2018-03-07T07:30:46.830Z,30.60
2018-03-07T07:33:17.174Z,30.60
2018-03-07T07:35:46.918Z,30.60
2018-03-07T07:38:17.625Z,30.70
2018-03-07T07:40:48.628Z,30.70
2018-03-07T07:43:18.391Z,30.80
2018-03-07T07:45:49.103Z,30.90
2018-03-07T07:48:18.795Z,30.90
2018-03-07T07:50:48.783Z,30.90
2018-03-07T07:53:18.531Z,30.90
2018-03-07T07:55:48.241Z,30.90
2018-03-07T07:58:18.256Z,30.90
2018-03-07T08:00:47.968Z,30.90
2018-03-07T08:03:17.797Z,30.90
2018-03-07T08:05:47.526Z,30.90
2018-03-07T08:08:18.095Z,30.90
2018-03-07T08:10:47.866Z,30.80
2018-03-07T08:13:19.518Z,31.00
2018-03-07T08:15:49.231Z,31.00
2018-03-07T08:18:20.246Z,31.10
2018-03-07T08:20:49.910Z,31.10
2018-03-07T08:23:19.626Z,31.10
2018-03-07T08:25:49.339Z,31.10
2018-03-07T08:28:19.046Z,31.10
2018-03-07T08:30:49.501Z,31.10
2018-03-07T08:33:19.250Z,31.20
2018-03-07T08:35:50.950Z,31.20
2018-03-07T08:38:20.705Z,31.20
2018-03-07T08:40:50.366Z,31.30
2018-03-07T08:43:21.076Z,31.30
2018-03-07T08:45:50.891Z,31.20
2018-03-07T08:48:20.566Z,31.30
2018-03-07T08:50:50.253Z,31.30
2018-03-07T08:53:19.932Z,31.20
2018-03-07T08:55:49.758Z,31.30
2018-03-07T08:58:20.339Z,31.30
2018-03-07T09:00:50.910Z,31.20
2018-03-07T09:03:20.604Z,31.20
2018-03-07T09:05:51.445Z,31.20
2018-03-07T09:08:21.120Z,31.20
2018-03-07T09:10:50.840Z,31.10
2018-03-07T09:13:21.358Z,31.20
2018-03-07T09:15:52.998Z,31.20
2018-03-07T09:18:23.198Z,31.10
2018-03-07T09:20:52.960Z,31.20
2018-03-07T09:23:23.482Z,31.30
2018-03-07T09:25:54.501Z,31.40
2018-03-07T09:28:25.046Z,31.30
2018-03-07T09:30:55.548Z,31.30
2018-03-07T09:33:25.489Z,31.30
2018-03-07T09:35:55.967Z,31.30
2018-03-07T09:38:26.040Z,31.30
2018-03-07T09:40:56.596Z,31.40
2018-03-07T09:43:26.546Z,31.30
2018-03-07T09:45:56.234Z,31.40
2018-03-07T09:48:25.929Z,31.40
2018-03-07T09:50:55.606Z,31.30
2018-03-07T09:53:26.213Z,31.30
2018-03-07T09:55:57.692Z,31.30
2018-03-07T10:01:00.064Z,31.30
2018-03-07T10:03:29.802Z,31.30
2018-03-07T10:05:59.536Z,31.30
2018-03-07T10:08:29.249Z,31.30
2018-03-07T10:11:00.045Z,31.30
2018-03-07T10:13:30.587Z,31.30
2018-03-07T10:16:00.963Z,31.30
2018-03-07T10:18:30.686Z,31.20
2018-03-07T10:21:00.420Z,31.30
2018-03-07T10:23:32.211Z,31.20
2018-03-07T10:26:02.152Z,31.20
2018-03-07T10:28:32.051Z,31.20
2018-03-07T10:31:01.743Z,31.10
2018-03-07T10:33:31.459Z,31.10
2018-03-07T10:36:01.235Z,31.20
2018-03-07T10:38:31.718Z,31.10
2018-03-07T10:41:01.467Z,31.10
2018-03-07T10:43:31.970Z,30.50
2018-03-07T10:46:01.696Z,30.50
2018-03-07T10:48:31.439Z,30.10
2018-03-07T10:51:02.090Z,30.10
2018-03-07T10:53:31.809Z,30.10
2018-03-07T10:56:01.988Z,30.20
2018-03-07T10:58:32.543Z,29.90
2018-03-07T11:01:02.347Z,29.90
2018-03-07T11:03:32.201Z,29.70
2018-03-07T11:06:01.920Z,29.60
2018-03-07T11:08:32.070Z,29.50
2018-03-07T11:11:02.044Z,29.60
2018-03-07T11:13:31.765Z,29.50
2018-03-07T11:16:01.475Z,29.30
2018-03-07T11:18:31.137Z,29.10
2018-03-07T11:21:01.632Z,29.10
2018-03-07T11:23:31.638Z,29.00
2018-03-07T11:26:02.785Z,29.00
2018-03-07T11:28:32.601Z,28.80
2018-03-07T11:31:03.149Z,28.80
2018-03-07T11:33:33.600Z,28.90
2018-03-07T11:36:04.822Z,29.10
2018-03-07T11:38:35.692Z,29.10
2018-03-07T11:41:05.432Z,29.10
2018-03-07T11:43:35.284Z,28.90
2018-03-07T11:46:05.764Z,28.60
2018-03-07T11:48:35.512Z,28.60
2018-03-07T11:51:06.076Z,28.30
2018-03-07T11:53:36.338Z,28.30
2018-03-07T11:56:06.765Z,28.30
2018-03-07T11:58:36.483Z,28.30
2018-03-07T12:01:06.542Z,28.50
2018-03-07T12:03:36.574Z,28.20
2018-03-07T12:06:06.710Z,28.00
2018-03-07T12:08:36.757Z,27.80
2018-03-07T12:11:06.790Z,27.90
2018-03-07T12:13:36.566Z,27.90
2018-03-07T12:16:06.764Z,28.30
2018-03-07T12:18:38.351Z,28.80
2018-03-07T12:21:08.049Z,28.80
2018-03-07T12:23:37.719Z,28.90
2018-03-07T12:26:08.211Z,28.70
2018-03-07T12:28:38.995Z,28.60
2018-03-07T12:31:09.256Z,28.50
2018-03-07T12:33:39.094Z,28.60
2018-03-07T12:36:09.048Z,28.60
2018-03-07T12:38:39.382Z,28.40
2018-03-07T12:41:09.630Z,28.20
2018-03-07T12:43:39.358Z,28.60
2018-03-07T12:46:09.262Z,28.70
2018-03-07T12:48:38.974Z,28.60
2018-03-07T12:51:09.639Z,28.70
2018-03-07T12:53:40.262Z,28.80
2018-03-07T12:56:10.131Z,28.80
2018-03-07T12:58:41.610Z,28.70
2018-03-07T13:01:11.306Z,28.70
2018-03-07T13:03:41.346Z,28.80
2018-03-07T13:06:14.209Z,28.90
2018-03-07T13:08:43.938Z,28.90
2018-03-07T13:11:13.783Z,28.80
2018-03-07T13:13:43.603Z,28.90
2018-03-07T13:16:16.495Z,28.70
2018-03-07T13:18:51.418Z,28.70
2018-03-07T13:21:22.815Z,28.60
2018-03-07T13:23:52.834Z,28.30
2018-03-07T13:26:24.196Z,28.10
2018-03-07T13:28:53.897Z,28.10
2018-03-07T13:31:24.046Z,28.20
2018-03-07T13:33:55.527Z,28.60
2018-03-07T13:36:25.391Z,28.70
2018-03-07T13:38:55.129Z,28.40
2018-03-07T13:41:25.674Z,28.70
2018-03-07T13:43:56.121Z,28.60
2018-03-07T13:46:25.882Z,28.70
2018-03-07T13:48:55.704Z,28.70
2018-03-07T13:51:25.571Z,28.70
2018-03-07T13:53:56.459Z,29.00
2018-03-07T13:56:27.044Z,28.90
2018-03-07T13:58:56.922Z,29.00
2018-03-07T14:01:26.711Z,28.90
2018-03-07T14:03:57.303Z,28.90
2018-03-07T14:06:27.271Z,28.90
2018-03-07T14:08:57.794Z,28.70
2018-03-07T14:11:28.339Z,28.70
2018-03-07T14:13:58.029Z,28.60
2018-03-07T14:16:28.046Z,28.60
2018-03-07T14:18:58.744Z,28.60
2018-03-07T14:21:29.735Z,28.60
2018-03-07T14:23:59.512Z,28.60
2018-03-07T14:26:29.273Z,28.50
2018-03-07T14:28:59.022Z,28.60
2018-03-07T14:31:28.737Z,28.70
2018-03-07T14:33:59.043Z,28.60
2018-03-07T14:36:29.817Z,28.60
2018-03-07T14:39:00.392Z,28.60
2018-03-07T14:41:30.146Z,28.60
2018-03-07T14:44:00.935Z,28.60
2018-03-07T14:46:30.697Z,28.60
2018-03-07T14:49:01.292Z,28.60
2018-03-07T14:51:31.040Z,28.50
2018-03-07T14:54:00.974Z,28.40
2018-03-07T14:56:31.033Z,28.30
2018-03-07T14:59:02.016Z,28.40
2018-03-07T15:01:31.768Z,28.40
2018-03-07T15:04:01.696Z,28.50
2018-03-07T15:06:31.481Z,28.50
2018-03-07T15:09:02.174Z,28.50
2018-03-07T15:11:32.321Z,28.60
2018-03-07T15:14:03.506Z,28.60
2018-03-07T15:16:33.261Z,28.50
2018-03-07T15:19:04.361Z,28.50
2018-03-07T15:21:34.401Z,28.50
2018-03-07T15:24:04.139Z,28.40
2018-03-07T15:26:34.774Z,28.40
2018-03-07T15:29:05.382Z,28.40
2018-03-07T15:31:35.256Z,28.30
2018-03-07T15:34:04.987Z,28.40
2018-03-07T15:36:34.720Z,28.40
2018-03-07T15:39:04.688Z,28.40
2018-03-07T15:41:34.997Z,28.40
2018-03-07T15:44:04.743Z,28.50
2018-03-07T15:46:34.493Z,28.50
2018-03-07T15:49:04.206Z,28.40
2018-03-07T15:51:34.682Z,28.30
2018-03-07T15:54:04.464Z,28.30
2018-03-07T15:56:34.174Z,28.30
2018-03-07T15:59:04.133Z,28.20
2018-03-07T16:01:33.823Z,28.40
2018-03-07T16:04:03.556Z,28.30
2018-03-07T16:06:33.266Z,28.40
2018-03-07T16:09:03.298Z,28.40
2018-03-07T16:11:32.914Z,28.40
2018-03-07T16:14:03.214Z,28.40
2018-03-07T16:16:32.930Z,28.50
2018-03-07T16:19:03.582Z,28.50
2018-03-07T16:21:33.357Z,28.50
2018-03-07T16:24:03.183Z,28.50
2018-03-07T16:26:32.920Z,28.50
2018-03-07T16:29:02.660Z,28.50
2018-03-07T16:31:32.342Z,28.50
2018-03-07T16:34:02.826Z,28.50
2018-03-07T16:36:32.551Z,28.50
2018-03-07T16:39:02.309Z,28.40
2018-03-07T16:41:32.794Z,28.20
2018-03-07T16:44:03.213Z,28.20
2018-03-07T16:46:32.937Z,28.30
2018-03-07T16:49:02.688Z,28.40
2018-03-07T16:51:32.382Z,28.40
2018-03-07T16:54:02.086Z,28.30
2018-03-07T16:56:32.127Z,28.20
2018-03-07T16:59:02.223Z,28.30
2018-03-07T17:01:32.650Z,28.20
2018-03-07T17:04:03.072Z,28.30
2018-03-07T17:06:32.885Z,28.30
2018-03-07T17:09:03.971Z,28.30
2018-03-07T17:11:33.737Z,28.30
2018-03-07T17:14:05.582Z,28.10
2018-03-07T17:16:35.302Z,28.10
2018-03-07T17:19:05.037Z,28.20
2018-03-07T17:21:35.535Z,28.20
2018-03-07T17:24:05.234Z,28.10
2018-03-07T17:26:37.648Z,28.20
2018-03-07T17:29:08.734Z,28.20
2018-03-07T17:31:38.441Z,28.10
2018-03-07T17:34:08.111Z,28.20
2018-03-07T17:36:37.872Z,28.00
2018-03-07T17:39:07.542Z,28.00
2018-03-07T17:41:37.490Z,28.00
2018-03-07T17:44:07.686Z,28.00
2018-03-07T17:46:37.543Z,28.00
2018-03-07T17:49:07.468Z,28.00
2018-03-07T17:51:38.072Z,28.10
2018-03-07T17:54:07.778Z,28.00
2018-03-07T17:56:38.481Z,28.10
2018-03-07T17:59:08.223Z,28.00
2018-03-07T18:01:37.908Z,28.00
2018-03-07T18:04:07.917Z,28.00
2018-03-07T18:06:38.333Z,28.00
2018-03-07T18:09:08.704Z,28.00
2018-03-07T18:11:39.648Z,28.00
2018-03-07T18:14:10.200Z,27.90
2018-03-07T18:16:39.918Z,28.00
2018-03-07T18:19:10.400Z,28.00
2018-03-07T18:21:40.118Z,28.00
2018-03-07T18:24:10.018Z,28.00
2018-03-07T18:26:41.227Z,27.90
2018-03-07T18:29:11.034Z,27.90
2018-03-07T18:31:40.746Z,27.90
2018-03-07T18:34:11.034Z,27.90
2018-03-07T18:36:42.243Z,27.90
2018-03-07T18:39:12.027Z,27.80
2018-03-07T18:41:44.010Z,27.80
2018-03-07T18:44:13.666Z,27.80
2018-03-07T18:46:43.313Z,27.80
2018-03-07T18:49:13.787Z,27.80
2018-03-07T18:51:43.504Z,27.70
2018-03-07T18:54:13.259Z,27.80
2018-03-07T18:56:44.160Z,27.80
2018-03-07T18:59:13.928Z,27.80
2018-03-07T19:01:45.149Z,27.80
2018-03-07T19:04:15.641Z,27.80
2018-03-07T19:06:45.553Z,27.80
2018-03-07T19:09:15.231Z,27.70
2018-03-07T19:11:45.481Z,27.70
2018-03-07T19:14:15.931Z,27.70
2018-03-07T19:16:46.954Z,27.70
2018-03-07T19:19:16.938Z,27.70
2018-03-07T19:21:47.278Z,27.80
2018-03-07T19:24:17.354Z,27.80
2018-03-07T19:26:47.906Z,27.70
2018-03-07T19:29:17.641Z,27.70
2018-03-07T19:31:47.417Z,27.60
2018-03-07T19:34:17.152Z,27.60
2018-03-07T19:36:46.871Z,27.60
2018-03-07T19:39:17.529Z,27.60
2018-03-07T19:41:47.799Z,27.70
2018-03-07T19:44:18.661Z,27.70
2018-03-07T19:46:48.325Z,27.70
2018-03-07T19:49:18.902Z,27.70
2018-03-07T19:51:48.623Z,27.70
2018-03-07T19:54:19.674Z,27.70
2018-03-07T19:56:49.782Z,27.70
2018-03-07T19:59:20.286Z,27.70
2018-03-07T20:01:49.990Z,27.70
2018-03-07T20:04:19.686Z,27.80
2018-03-07T20:06:49.558Z,27.70
2018-03-07T20:09:19.914Z,27.60
2018-03-07T20:11:51.178Z,27.50
2018-03-07T20:14:20.920Z,27.50
2018-03-07T20:16:51.592Z,27.20
2018-03-07T20:19:22.246Z,27.20
2018-03-07T20:21:52.105Z,27.20
2018-03-07T20:24:21.856Z,27.20
2018-03-07T20:26:51.898Z,27.30
2018-03-07T20:29:22.154Z,27.40
2018-03-07T20:31:52.172Z,27.50
2018-03-07T20:34:22.481Z,27.50
2018-03-07T20:36:53.432Z,27.30
2018-03-07T20:39:23.789Z,27.30
2018-03-07T20:41:54.347Z,27.40
2018-03-07T20:44:24.007Z,27.40
2018-03-07T20:46:53.955Z,27.40
2018-03-07T20:49:25.066Z,27.40
2018-03-07T20:51:55.074Z,27.40
2018-03-07T20:54:24.780Z,27.40
2018-03-07T20:56:54.881Z,27.40
2018-03-07T20:59:24.643Z,27.50
2018-03-07T21:01:55.330Z,27.30
2018-03-07T21:04:25.116Z,27.30
2018-03-07T21:06:55.824Z,27.30
2018-03-07T21:09:26.242Z,27.20
2018-03-07T21:11:56.696Z,27.30
2018-03-07T21:14:27.812Z,27.40
2018-03-07T21:16:58.818Z,27.40
2018-03-07T21:19:28.770Z,27.40
2018-03-07T21:21:58.875Z,27.50
2018-03-07T21:24:29.883Z,27.60
2018-03-07T21:26:59.837Z,27.60
2018-03-07T21:29:30.010Z,27.60
2018-03-07T21:32:00.087Z,27.60
2018-03-07T21:34:30.987Z,27.60
2018-03-07T21:37:01.364Z,27.60
2018-03-07T21:39:32.400Z,27.50
2018-03-07T21:42:03.799Z,27.30
2018-03-07T21:44:33.541Z,27.30
2018-03-07T21:47:03.855Z,27.30
2018-03-07T21:49:34.066Z,27.40
2018-03-07T21:52:05.034Z,27.60
2018-03-07T21:54:36.014Z,27.60
2018-03-07T21:57:06.679Z,27.60
2018-03-07T21:59:36.895Z,27.60
2018-03-07T22:02:08.266Z,27.50
2018-03-07T22:04:37.954Z,27.50
2018-03-07T22:07:07.639Z,27.40
2018-03-07T22:09:37.362Z,27.30
2018-03-07T22:12:07.229Z,27.40
2018-03-07T22:14:37.719Z,27.40
2018-03-07T22:17:08.187Z,27.40
2018-03-07T22:19:39.208Z,27.20
2018-03-07T22:22:09.422Z,27.20
2018-03-07T22:24:39.451Z,27.30
2018-03-07T22:27:09.629Z,27.20
2018-03-07T22:29:39.581Z,27.00
2018-03-07T22:32:09.910Z,27.00
2018-03-07T22:34:40.283Z,27.20
2018-03-07T22:37:10.464Z,27.20
2018-03-07T22:39:41.426Z,27.20
2018-03-07T22:42:12.117Z,27.30
2018-03-07T22:44:43.790Z,27.40
2018-03-07T22:47:14.788Z,27.40
2018-03-07T22:49:45.039Z,27.40
2018-03-07T22:52:15.276Z,27.30
2018-03-07T22:54:47.146Z,27.30
2018-03-07T22:57:17.210Z,27.30
2018-03-07T22:59:47.612Z,27.30
2018-03-07T23:02:17.566Z,27.30
2018-03-07T23:04:47.272Z,27.30
2018-03-07T23:07:16.975Z,27.30
2018-03-07T23:09:46.610Z,27.30
2018-03-07T23:12:16.482Z,27.20
2018-03-07T23:14:46.131Z,27.10
2018-03-07T23:17:16.266Z,27.00
2018-03-07T23:19:45.945Z,27.10
2018-03-07T23:22:15.645Z,27.10
2018-03-07T23:24:46.579Z,27.00
2018-03-07T23:27:16.316Z,26.90
2018-03-07T23:29:45.995Z,26.90
2018-03-07T23:32:15.718Z,27.00
2018-03-07T23:34:45.393Z,27.10
2018-03-07T23:37:15.867Z,27.20
2018-03-07T23:39:45.527Z,27.20
2018-03-07T23:42:15.217Z,27.10
2018-03-07T23:44:44.963Z,27.20
2018-03-07T23:47:14.692Z,27.30
2018-03-07T23:49:44.386Z,27.30
2018-03-07T23:52:14.126Z,27.20
2018-03-07T23:54:43.863Z,27.20
2018-03-07T23:57:14.363Z,27.30
2018-03-07T23:59:45.202Z,27.30
